Bf Caroda — V2CV5 — position and weather

sailwx.info

Track history (hours):
 
Tides and Currents Weather Stations Pressure Air Temp Water Temp Dewpoint Dewpoint Depression Visibility Wind Speed Wind Dir Waves Ship Positions

Bf Caroda

Last reported at 2014-Aug-22 15:31 UTC. Time now 2014-Aug-22 15:46 UTC.
Position N 43°21' E 005°20'.

Length 134 m; draft 6 m.

Type: Ship (hazmat cat A). MMSI: 304678000.

Date/timePositionNaut miles runAvg speedWind from/ knotsBaromVisibWave heightAir tempDewpointWater temp
2014-Aug-22 15:31N 43°21' E 005°20'0 0.0
2014-Aug-22 14:33N 43°21' E 005°20'0 0.0
2014-Aug-22 13:33N 43°21' E 005°20'0 0.0
2014-Aug-22 12:33N 43°21' E 005°20'0 0.0
2014-Aug-22 11:32N 43°21' E 005°20'0 0.0
2014-Aug-22 10:32N 43°21' E 005°20'0 0.0
2014-Aug-22 09:31N 43°21' E 005°20'0 0.0
2014-Aug-22 08:31N 43°21' E 005°20'0 0.0
2014-Aug-22 07:33N 43°21' E 005°20'0 0.0
2014-Aug-22 06:33N 43°21' E 005°20'0 0.0
2014-Aug-22 05:33N 43°21' E 005°20'0 0.0
2014-Aug-22 04:32N 43°21' E 005°20'0 0.0
2014-Aug-22 03:29N 43°21' E 005°20'0 0.0
2014-Aug-22 02:33N 43°21' E 005°20'0 0.0
2014-Aug-22 01:31N 43°21' E 005°20'0 0.0
2014-Aug-22 00:33N 43°21' E 005°20'0 0.0
2014-Aug-21 23:33N 43°21' E 005°20'0 0.0
2014-Aug-21 22:33N 43°21' E 005°20'0 0.0
2014-Aug-21 21:32N 43°21' E 005°20'0 0.0
2014-Aug-21 20:32N 43°21' E 005°20'0 0.0
2014-Aug-21 19:31N 43°21' E 005°20'0 0.0
2014-Aug-21 18:31N 43°21' E 005°20'0 0.0
2014-Aug-21 17:30N 43°21' E 005°20'0 0.0
2014-Aug-21 16:33N 43°21' E 005°20'0 0.0
2014-Aug-21 15:33N 43°21' E 005°20'0 0.0
2014-Aug-21 14:32N 43°21' E 005°20'0 0.0
2014-Aug-21 13:32N 43°21' E 005°20'0 0.0
2014-Aug-21 12:31N 43°21' E 005°20'0 0.0
2014-Aug-21 11:33N 43°21' E 005°20'7 7.3
2014-Aug-21 10:33N 43°17' E 005°12'1615.5
2014-Aug-21 09:33N 43°01' E 005°13'1414.0
2014-Aug-21 08:33N 42°50' E 005°23'1616.4
2014-Aug-21 07:34N 42°50' E 005°45'1616.3
2014-Aug-21 06:33N 42°47' E 006°07'1616.4
2014-Aug-21 05:33N 42°47' E 006°29'1616.2
2014-Aug-21 04:33N 42°57' E 006°47'1716.7
2014-Aug-21 03:33N 43°07' E 007°05'1616.3
2014-Aug-21 02:33N 43°18' E 007°22'1716.4
2014-Aug-21 01:30N 43°29' E 007°40'2417.6
2014-Aug-21 00:10N 43°44' E 008°05'1117.6
2014-Aug-20 23:33N 43°51' E 008°16'1717.0
2014-Aug-20 22:33N 44°03' E 008°33'1716.7
2014-Aug-20 21:34N 44°14' E 008°50'1010.1
2014-Aug-20 20:33N 44°24' E 008°54'0 0.2
2014-Aug-20 19:31N 44°24' E 008°54'0 0.0
2014-Aug-20 18:33N 44°24' E 008°54'0 0.0
2014-Aug-20 17:18N 44°24' E 008°54'0 0.0
2014-Aug-20 16:17N 44°24' E 008°54'0 0.0
2014-Aug-20 15:32N 44°24' E 008°54'0 0.0
2014-Aug-20 14:33N 44°24' E 008°54'1 0.9
2014-Aug-20 13:33N 44°24' E 008°55'9 8.9
2014-Aug-20 12:33N 44°17' E 009°02'1717.2
2014-Aug-20 11:33N 44°06' E 009°21'1717.4
2014-Aug-20 10:33N 44°01' E 009°44'7 6.8
2014-Aug-20 09:33N 44°06' E 009°51'0 0.0
2014-Aug-20 08:32N 44°06' E 009°51'0 0.0
2014-Aug-20 07:32N 44°06' E 009°51'0 0.0
2014-Aug-20 06:31N 44°06' E 009°51'0 0.0
2014-Aug-20 05:32N 44°06' E 009°51'0 0.0
2014-Aug-20 04:34N 44°06' E 009°51'0 0.0
2014-Aug-20 03:33N 44°06' E 009°51'0 0.0
2014-Aug-20 02:33N 44°06' E 009°51'0 0.0
2014-Aug-20 01:32N 44°06' E 009°51'0 0.0
2014-Aug-20 00:32N 44°06' E 009°51'0 0.0
2014-Aug-19 23:31N 44°06' E 009°51'0 0.0
2014-Aug-19 22:31N 44°06' E 009°51'0 0.0
2014-Aug-19 21:33N 44°06' E 009°51'0 0.0
2014-Aug-19 20:33N 44°06' E 009°51'0 0.0
2014-Aug-19 19:33N 44°06' E 009°51'0 0.0
2014-Aug-19 18:32N 44°06' E 009°51'0 0.0
2014-Aug-19 17:32N 44°06' E 009°51'9 9.5
2014-Aug-19 16:33N 43°59' E 009°59'1212.1
2014-Aug-19 15:34N 43°47' E 009°56'1717.4
2014-Aug-19 14:33N 43°35' E 009°39'1817.7
2014-Aug-19 13:34N 43°22' E 009°21'1716.8
2014-Aug-19 12:34N 43°11' E 009°05'1817.5
2014-Aug-19 11:34N 42°58' E 008°48'1817.8
2014-Aug-19 10:34N 42°46' E 008°31'1717.4
2014-Aug-19 09:34N 42°34' E 008°14'3917.1
2014-Aug-19 07:15N 42°06' E 007°37'1916.8
2014-Aug-19 06:09N 41°52' E 007°19'1317.3
2014-Aug-19 05:24N 41°43' E 007°06'8617.1
2014-Aug-19 00:23N 40°43' E 005°45'1916.6
2014-Aug-18 23:15N 40°30' E 005°28'1316.9
2014-Aug-18 22:29N 40°21' E 005°15'1415.4
2014-Aug-18 21:33N 40°11' E 005°02'1817.4
2014-Aug-18 20:31N 39°58' E 004°46'1815.9
2014-Aug-18 19:24N 39°45' E 004°29'1516.7
2014-Aug-18 18:31N 39°35' E 004°15'1817.5
2014-Aug-18 17:27N 39°22' E 003°58'1515.9
2014-Aug-18 16:31N 39°12' E 003°44'1916.9
2014-Aug-18 15:25N 38°59' E 003°27'1416.7
2014-Aug-18 14:33N 38°49' E 003°14'1615.9
2014-Aug-18 13:33N 38°38' E 002°59'3115.7
2014-Aug-18 11:33N 38°16' E 002°30'16316.0
2014-Aug-18 01:21N 36°23' E 000°02'1315.5
2014-Aug-18 00:30N 36°14' W 000°10'  
Track history (hours):
 
Tides and Currents Weather Stations Pressure Air Temp Water Temp Dewpoint Dewpoint Depression Visibility Wind Speed Wind Dir Waves Ship Positions

Bf Caroda

Last reported at 2014-Aug-22 15:31 UTC. Time now 2014-Aug-22 15:46 UTC.
Position N 43°21' E 005°20'.

Length 134 m; draft 6 m.

Type: Ship (hazmat cat A). MMSI: 304678000.

Date/timePositionNaut miles runAvg speedWind from/ knotsBaromVisibWave heightAir tempDewpointWater temp
2014-Aug-22 15:31N 43°21' E 005°20'0 0.0
2014-Aug-22 14:33N 43°21' E 005°20'0 0.0
2014-Aug-22 13:33N 43°21' E 005°20'0 0.0
2014-Aug-22 12:33N 43°21' E 005°20'0 0.0
2014-Aug-22 11:32N 43°21' E 005°20'0 0.0
2014-Aug-22 10:32N 43°21' E 005°20'0 0.0
2014-Aug-22 09:31N 43°21' E 005°20'0 0.0
2014-Aug-22 08:31N 43°21' E 005°20'0 0.0
2014-Aug-22 07:33N 43°21' E 005°20'0 0.0
2014-Aug-22 06:33N 43°21' E 005°20'0 0.0
2014-Aug-22 05:33N 43°21' E 005°20'0 0.0
2014-Aug-22 04:32N 43°21' E 005°20'0 0.0
2014-Aug-22 03:29N 43°21' E 005°20'0 0.0
2014-Aug-22 02:33N 43°21' E 005°20'0 0.0
2014-Aug-22 01:31N 43°21' E 005°20'0 0.0
2014-Aug-22 00:33N 43°21' E 005°20'0 0.0
2014-Aug-21 23:33N 43°21' E 005°20'0 0.0
2014-Aug-21 22:33N 43°21' E 005°20'0 0.0
2014-Aug-21 21:32N 43°21' E 005°20'0 0.0
2014-Aug-21 20:32N 43°21' E 005°20'0 0.0
2014-Aug-21 19:31N 43°21' E 005°20'0 0.0
2014-Aug-21 18:31N 43°21' E 005°20'0 0.0
2014-Aug-21 17:30N 43°21' E 005°20'0 0.0
2014-Aug-21 16:33N 43°21' E 005°20'0 0.0
2014-Aug-21 15:33N 43°21' E 005°20'0 0.0
2014-Aug-21 14:32N 43°21' E 005°20'0 0.0
2014-Aug-21 13:32N 43°21' E 005°20'0 0.0
2014-Aug-21 12:31N 43°21' E 005°20'0 0.0
2014-Aug-21 11:33N 43°21' E 005°20'7 7.3
2014-Aug-21 10:33N 43°17' E 005°12'1615.5
2014-Aug-21 09:33N 43°01' E 005°13'1414.0
2014-Aug-21 08:33N 42°50' E 005°23'1616.4
2014-Aug-21 07:34N 42°50' E 005°45'1616.3
2014-Aug-21 06:33N 42°47' E 006°07'1616.4
2014-Aug-21 05:33N 42°47' E 006°29'1616.2
2014-Aug-21 04:33N 42°57' E 006°47'1716.7
2014-Aug-21 03:33N 43°07' E 007°05'1616.3
2014-Aug-21 02:33N 43°18' E 007°22'1716.4
2014-Aug-21 01:30N 43°29' E 007°40'2417.6
2014-Aug-21 00:10N 43°44' E 008°05'1117.6
2014-Aug-20 23:33N 43°51' E 008°16'1717.0
2014-Aug-20 22:33N 44°03' E 008°33'1716.7
2014-Aug-20 21:34N 44°14' E 008°50'1010.1
2014-Aug-20 20:33N 44°24' E 008°54'0 0.2
2014-Aug-20 19:31N 44°24' E 008°54'0 0.0
2014-Aug-20 18:33N 44°24' E 008°54'0 0.0
2014-Aug-20 17:18N 44°24' E 008°54'0 0.0
2014-Aug-20 16:17N 44°24' E 008°54'0 0.0
2014-Aug-20 15:32N 44°24' E 008°54'0 0.0
2014-Aug-20 14:33N 44°24' E 008°54'1 0.9
2014-Aug-20 13:33N 44°24' E 008°55'9 8.9
2014-Aug-20 12:33N 44°17' E 009°02'1717.2
2014-Aug-20 11:33N 44°06' E 009°21'1717.4
2014-Aug-20 10:33N 44°01' E 009°44'7 6.8
2014-Aug-20 09:33N 44°06' E 009°51'0 0.0
2014-Aug-20 08:32N 44°06' E 009°51'0 0.0
2014-Aug-20 07:32N 44°06' E 009°51'0 0.0
2014-Aug-20 06:31N 44°06' E 009°51'0 0.0
2014-Aug-20 05:32N 44°06' E 009°51'0 0.0
2014-Aug-20 04:34N 44°06' E 009°51'0 0.0
2014-Aug-20 03:33N 44°06' E 009°51'0 0.0
2014-Aug-20 02:33N 44°06' E 009°51'0 0.0
2014-Aug-20 01:32N 44°06' E 009°51'0 0.0
2014-Aug-20 00:32N 44°06' E 009°51'0 0.0
2014-Aug-19 23:31N 44°06' E 009°51'0 0.0
2014-Aug-19 22:31N 44°06' E 009°51'0 0.0
2014-Aug-19 21:33N 44°06' E 009°51'0 0.0
2014-Aug-19 20:33N 44°06' E 009°51'0 0.0
2014-Aug-19 19:33N 44°06' E 009°51'0 0.0
2014-Aug-19 18:32N 44°06' E 009°51'0 0.0
2014-Aug-19 17:32N 44°06' E 009°51'9 9.5
2014-Aug-19 16:33N 43°59' E 009°59'1212.1
2014-Aug-19 15:34N 43°47' E 009°56'1717.4
2014-Aug-19 14:33N 43°35' E 009°39'1817.7
2014-Aug-19 13:34N 43°22' E 009°21'1716.8
2014-Aug-19 12:34N 43°11' E 009°05'1817.5
2014-Aug-19 11:34N 42°58' E 008°48'1817.8
2014-Aug-19 10:34N 42°46' E 008°31'1717.4
2014-Aug-19 09:34N 42°34' E 008°14'3917.1
2014-Aug-19 07:15N 42°06' E 007°37'1916.8
2014-Aug-19 06:09N 41°52' E 007°19'1317.3
2014-Aug-19 05:24N 41°43' E 007°06'8617.1
2014-Aug-19 00:23N 40°43' E 005°45'1916.6
2014-Aug-18 23:15N 40°30' E 005°28'1316.9
2014-Aug-18 22:29N 40°21' E 005°15'1415.4
2014-Aug-18 21:33N 40°11' E 005°02'1817.4
2014-Aug-18 20:31N 39°58' E 004°46'1815.9
2014-Aug-18 19:24N 39°45' E 004°29'1516.7
2014-Aug-18 18:31N 39°35' E 004°15'1817.5
2014-Aug-18 17:27N 39°22' E 003°58'1515.9
2014-Aug-18 16:31N 39°12' E 003°44'1916.9
2014-Aug-18 15:25N 38°59' E 003°27'1416.7
2014-Aug-18 14:33N 38°49' E 003°14'1615.9
2014-Aug-18 13:33N 38°38' E 002°59'3115.7
2014-Aug-18 11:33N 38°16' E 002°30'16316.0
2014-Aug-18 01:21N 36°23' E 000°02'1315.5
2014-Aug-18 00:30N 36°14' W 000°10'  

Dump ship's entire track history